sensor_id;sensor_type;location;lat;lon;timestamp;pressure;altitude;pressure_sealevel;temperature;humidity
39267;BME280;24967;51.154;13.812;2022-09-21T00:01:17;100275.97;;;11.53;82.44
39267;BME280;24967;51.154;13.812;2022-09-21T00:03:44;100273.03;;;11.56;82.30
39267;BME280;24967;51.154;13.812;2022-09-21T00:06:13;100268.41;;;11.58;82.43
39267;BME280;24967;51.154;13.812;2022-09-21T00:08:40;100261.97;;;11.60;82.29
39267;BME280;24967;51.154;13.812;2022-09-21T00:11:11;100265.91;;;11.66;82.45
39267;BME280;24967;51.154;13.812;2022-09-21T00:13:39;100270.41;;;11.65;82.16
39267;BME280;24967;51.154;13.812;2022-09-21T00:16:07;100265.63;;;11.69;82.35
39267;BME280;24967;51.154;13.812;2022-09-21T00:18:35;100265.63;;;11.69;82.04
39267;BME280;24967;51.154;13.812;2022-09-21T00:21:05;100272.63;;;11.70;82.36
39267;BME280;24967;51.154;13.812;2022-09-21T00:23:33;100265.47;;;11.70;82.45
39267;BME280;24967;51.154;13.812;2022-09-21T00:26:08;100266.91;;;11.75;82.18
39267;BME280;24967;51.154;13.812;2022-09-21T00:28:36;100266.91;;;11.75;82.58
39267;BME280;24967;51.154;13.812;2022-09-21T00:31:06;100271.22;;;11.76;82.10
39267;BME280;24967;51.154;13.812;2022-09-21T00:33:33;100271.78;;;11.79;82.56
39267;BME280;24967;51.154;13.812;2022-09-21T00:36:01;100269.97;;;11.80;82.22
39267;BME280;24967;51.154;13.812;2022-09-21T00:38:29;100269.69;;;11.83;82.38
39267;BME280;24967;51.154;13.812;2022-09-21T00:40:55;100265.22;;;11.83;82.32
39267;BME280;24967;51.154;13.812;2022-09-21T00:43:22;100267.88;;;11.83;82.49
39267;BME280;24967;51.154;13.812;2022-09-21T00:45:53;100265.22;;;11.83;82.33
39267;BME280;24967;51.154;13.812;2022-09-21T00:48:24;100267.00;;;11.83;82.64
39267;BME280;24967;51.154;13.812;2022-09-21T00:50:53;100270.41;;;11.85;82.45
39267;BME280;24967;51.154;13.812;2022-09-21T00:53:21;100274.03;;;11.84;82.35
39267;BME280;24967;51.154;13.812;2022-09-21T00:55:51;100272.09;;;11.86;82.22
39267;BME280;24967;51.154;13.812;2022-09-21T00:58:21;100271.25;;;11.85;82.69
39267;BME280;24967;51.154;13.812;2022-09-21T01:00:51;100275.88;;;11.83;82.33
39267;BME280;24967;51.154;13.812;2022-09-21T01:03:18;100270.53;;;11.83;82.28
39267;BME280;24967;51.154;13.812;2022-09-21T01:05:44;100276.84;;;11.82;82.27
39267;BME280;24967;51.154;13.812;2022-09-21T01:08:12;100275.28;;;11.80;82.50
39267;BME280;24967;51.154;13.812;2022-09-21T01:10:49;100274.31;;;11.81;82.47
39267;BME280;24967;51.154;13.812;2022-09-21T01:13:28;100276.84;;;11.82;82.67
39267;BME280;24967;51.154;13.812;2022-09-21T01:16:03;100275.00;;;11.83;82.46
39267;BME280;24967;51.154;13.812;2022-09-21T01:18:35;100274.16;;;11.82;82.45
39267;BME280;24967;51.154;13.812;2022-09-21T01:21:18;100284.28;;;11.79;82.52
39267;BME280;24967;51.154;13.812;2022-09-21T01:24:07;100276.28;;;11.79;82.60
39267;BME280;24967;51.154;13.812;2022-09-21T01:26:51;100275.44;;;11.78;82.75
39267;BME280;24967;51.154;13.812;2022-09-21T01:29:25;100278.09;;;11.78;82.71
39267;BME280;24967;51.154;13.812;2022-09-21T01:31:53;100284.97;;;11.81;82.16
39267;BME280;24967;51.154;13.812;2022-09-21T01:34:27;100283.47;;;11.88;81.84
39267;BME280;24967;51.154;13.812;2022-09-21T01:36:57;100290.03;;;11.84;82.05
39267;BME280;24967;51.154;13.812;2022-09-21T01:39:26;100291.28;;;11.80;81.98
39267;BME280;24967;51.154;13.812;2022-09-21T01:41:55;100290.16;;;11.82;82.23
39267;BME280;24967;51.154;13.812;2022-09-21T01:44:27;100283.56;;;11.77;82.29
39267;BME280;24967;51.154;13.812;2022-09-21T01:46:59;100295.22;;;11.76;82.37
39267;BME280;24967;51.154;13.812;2022-09-21T01:49:29;100298.00;;;11.64;82.66
39267;BME280;24967;51.154;13.812;2022-09-21T01:52:01;100301.66;;;11.63;82.33
39267;BME280;24967;51.154;13.812;2022-09-21T01:54:31;100292.66;;;11.64;82.41
39267;BME280;24967;51.154;13.812;2022-09-21T01:57:06;100298.28;;;11.61;82.35
39267;BME280;24967;51.154;13.812;2022-09-21T01:59:42;100300.25;;;11.59;82.19
39267;BME280;24967;51.154;13.812;2022-09-21T02:02:15;100302.31;;;11.56;82.02
39267;BME280;24967;51.154;13.812;2022-09-21T02:04:43;100302.88;;;11.50;81.74
39267;BME280;24967;51.154;13.812;2022-09-21T02:07:10;100305.13;;;11.44;81.61
39267;BME280;24967;51.154;13.812;2022-09-21T02:09:37;100301.03;;;11.40;81.72
39267;BME280;24967;51.154;13.812;2022-09-21T02:12:04;100298.66;;;11.37;81.39
39267;BME280;24967;51.154;13.812;2022-09-21T02:14:31;100297.41;;;11.32;81.29
39267;BME280;24967;51.154;13.812;2022-09-21T02:17:06;100298.63;;;11.28;81.11
39267;BME280;24967;51.154;13.812;2022-09-21T02:19:41;100300.03;;;11.22;81.05
39267;BME280;24967;51.154;13.812;2022-09-21T02:22:12;100308.44;;;11.17;81.13
39267;BME280;24967;51.154;13.812;2022-09-21T02:24:42;100309.81;;;11.12;81.05
39267;BME280;24967;51.154;13.812;2022-09-21T02:27:18;100312.59;;;11.10;81.01
39267;BME280;24967;51.154;13.812;2022-09-21T02:29:51;100310.19;;;11.07;81.01
39267;BME280;24967;51.154;13.812;2022-09-21T02:32:25;100314.94;;;11.04;81.19
39267;BME280;24967;51.154;13.812;2022-09-21T02:35:02;100317.88;;;11.00;81.05
39267;BME280;24967;51.154;13.812;2022-09-21T02:37:35;100313.56;;;10.99;80.84
39267;BME280;24967;51.154;13.812;2022-09-21T02:40:10;100314.66;;;10.97;81.11
39267;BME280;24967;51.154;13.812;2022-09-21T02:42:43;100309.59;;;10.94;81.17
39267;BME280;24967;51.154;13.812;2022-09-21T02:45:15;100313.38;;;10.91;81.13
39267;BME280;24967;51.154;13.812;2022-09-21T02:47:49;100308.88;;;10.92;81.24
39267;BME280;24967;51.154;13.812;2022-09-21T02:50:20;100309.47;;;10.95;81.33
39267;BME280;24967;51.154;13.812;2022-09-21T02:52:50;100312.84;;;10.97;81.54
39267;BME280;24967;51.154;13.812;2022-09-21T02:55:18;100307.66;;;10.96;81.44
39267;BME280;24967;51.154;13.812;2022-09-21T02:57:46;100314.66;;;10.97;81.64
39267;BME280;24967;51.154;13.812;2022-09-21T03:00:14;100316.22;;;10.99;82.06
39267;BME280;24967;51.154;13.812;2022-09-21T03:02:43;100318.44;;;11.04;81.82
39267;BME280;24967;51.154;13.812;2022-09-21T03:05:13;100330.53;;;11.08;82.10
39267;BME280;24967;51.154;13.812;2022-09-21T03:07:40;100320.72;;;11.09;82.11
39267;BME280;24967;51.154;13.812;2022-09-21T03:10:07;100323.38;;;11.09;83.05
39267;BME280;24967;51.154;13.812;2022-09-21T03:12:34;100324.84;;;10.92;84.77
39267;BME280;24967;51.154;13.812;2022-09-21T03:15:01;100327.19;;;11.16;84.24
39267;BME280;24967;51.154;13.812;2022-09-21T03:17:27;100327.38;;;10.63;88.53
39267;BME280;24967;51.154;13.812;2022-09-21T03:19:54;100334.06;;;10.88;87.40
39267;BME280;24967;51.154;13.812;2022-09-21T03:22:22;100327.66;;;10.90;87.31
39267;BME280;24967;51.154;13.812;2022-09-21T03:24:49;100328.91;;;10.86;88.34
39267;BME280;24967;51.154;13.812;2022-09-21T03:27:19;100329.28;;;10.82;89.07
39267;BME280;24967;51.154;13.812;2022-09-21T03:29:46;100329.22;;;10.93;88.11
39267;BME280;24967;51.154;13.812;2022-09-21T03:32:14;100327.22;;;10.95;88.29
39267;BME280;24967;51.154;13.812;2022-09-21T03:34:41;100331.31;;;10.89;88.54
39267;BME280;24967;51.154;13.812;2022-09-21T03:37:08;100334.41;;;11.04;88.29
39267;BME280;24967;51.154;13.812;2022-09-21T03:39:36;100337.56;;;11.19;87.59
39267;BME280;24967;51.154;13.812;2022-09-21T03:42:03;100338.28;;;11.21;87.25
39267;BME280;24967;51.154;13.812;2022-09-21T03:44:30;100346.25;;;11.21;87.27
39267;BME280;24967;51.154;13.812;2022-09-21T03:46:56;100340.38;;;11.17;87.07
39267;BME280;24967;51.154;13.812;2022-09-21T03:49:23;100337.78;;;11.06;87.12
39267;BME280;24967;51.154;13.812;2022-09-21T03:51:50;100339.75;;;11.04;88.23
39267;BME280;24967;51.154;13.812;2022-09-21T03:54:16;100340.06;;;11.11;87.95
39267;BME280;24967;51.154;13.812;2022-09-21T03:56:44;100342.59;;;11.22;87.21
39267;BME280;24967;51.154;13.812;2022-09-21T03:59:11;100342.47;;;11.14;87.42
39267;BME280;24967;51.154;13.812;2022-09-21T04:01:37;100351.47;;;11.32;86.55
39267;BME280;24967;51.154;13.812;2022-09-21T04:04:04;100342.50;;;11.33;86.41
39267;BME280;24967;51.154;13.812;2022-09-21T04:06:30;100343.78;;;11.29;86.32
39267;BME280;24967;51.154;13.812;2022-09-21T04:08:58;100341.84;;;11.41;85.97
39267;BME280;24967;51.154;13.812;2022-09-21T04:11:26;100340.44;;;11.46;85.45
39267;BME280;24967;51.154;13.812;2022-09-21T04:13:55;100344.91;;;11.46;85.45
39267;BME280;24967;51.154;13.812;2022-09-21T04:16:22;100340.53;;;11.26;85.48
39267;BME280;24967;51.154;13.812;2022-09-21T04:18:48;100349.31;;;11.16;86.23
39267;BME280;24967;51.154;13.812;2022-09-21T04:21:15;100347.38;;;11.28;85.88
39267;BME280;24967;51.154;13.812;2022-09-21T04:23:42;100354.97;;;11.33;85.51
39267;BME280;24967;51.154;13.812;2022-09-21T04:26:18;100359.59;;;11.40;85.07
39267;BME280;24967;51.154;13.812;2022-09-21T04:28:45;100357.34;;;11.26;85.56
39267;BME280;24967;51.154;13.812;2022-09-21T04:31:13;100356.34;;;11.27;85.61
39267;BME280;24967;51.154;13.812;2022-09-21T04:33:39;100355.91;;;11.22;85.38
39267;BME280;24967;51.154;13.812;2022-09-21T04:36:06;100348.63;;;11.14;85.63
39267;BME280;24967;51.154;13.812;2022-09-21T04:38:32;100359.66;;;11.10;85.64
39267;BME280;24967;51.154;13.812;2022-09-21T04:40:59;100359.25;;;11.14;85.45
39267;BME280;24967;51.154;13.812;2022-09-21T04:43:26;100356.34;;;11.17;85.26
39267;BME280;24967;51.154;13.812;2022-09-21T04:45:52;100364.69;;;11.13;84.72
39267;BME280;24967;51.154;13.812;2022-09-21T04:48:20;100369.63;;;11.17;84.52
39267;BME280;24967;51.154;13.812;2022-09-21T04:50:47;100364.44;;;11.16;84.35
39267;BME280;24967;51.154;13.812;2022-09-21T04:53:14;100371.47;;;11.17;84.02
39267;BME280;24967;51.154;13.812;2022-09-21T04:55:40;100372.69;;;11.13;84.01
39267;BME280;24967;51.154;13.812;2022-09-21T04:58:07;100368.47;;;11.10;83.56
39267;BME280;24967;51.154;13.812;2022-09-21T05:00:33;100378.16;;;11.11;83.41
39267;BME280;24967;51.154;13.812;2022-09-21T05:03:00;100378.44;;;11.08;83.47
39267;BME280;24967;51.154;13.812;2022-09-21T05:05:28;100388.22;;;11.08;83.00
39267;BME280;24967;51.154;13.812;2022-09-21T05:07:56;100382.91;;;11.08;82.86
39267;BME280;24967;51.154;13.812;2022-09-21T05:10:22;100388.34;;;11.06;82.80
39267;BME280;24967;51.154;13.812;2022-09-21T05:12:48;100386.09;;;11.02;82.70
39267;BME280;24967;51.154;13.812;2022-09-21T05:15:15;100400.09;;;11.04;82.37
39267;BME280;24967;51.154;13.812;2022-09-21T05:17:42;100392.94;;;11.04;81.80
39267;BME280;24967;51.154;13.812;2022-09-21T05:20:09;100402.44;;;10.97;82.00
39267;BME280;24967;51.154;13.812;2022-09-21T05:22:38;100401.47;;;10.98;82.37
39267;BME280;24967;51.154;13.812;2022-09-21T05:25:05;100404.53;;;10.93;82.30
39267;BME280;24967;51.154;13.812;2022-09-21T05:27:32;100405.25;;;10.95;82.46
39267;BME280;24967;51.154;13.812;2022-09-21T05:29:59;100409.13;;;10.91;82.56
39267;BME280;24967;51.154;13.812;2022-09-21T05:32:29;100406.34;;;10.93;82.83
39267;BME280;24967;51.154;13.812;2022-09-21T05:35:06;100410.47;;;11.07;83.01
39267;BME280;24967;51.154;13.812;2022-09-21T05:37:43;100412.63;;;10.92;83.76
39267;BME280;24967;51.154;13.812;2022-09-21T05:40:12;100418.69;;;10.94;84.06
39267;BME280;24967;51.154;13.812;2022-09-21T05:42:39;100420.44;;;11.05;83.94
39267;BME280;24967;51.154;13.812;2022-09-21T05:45:08;100421.25;;;11.05;84.00
39267;BME280;24967;51.154;13.812;2022-09-21T05:47:37;100419.91;;;10.90;85.06
39267;BME280;24967;51.154;13.812;2022-09-21T05:50:16;100422.63;;;10.99;85.07
39267;BME280;24967;51.154;13.812;2022-09-21T05:52:54;100424.22;;;11.12;85.03
39267;BME280;24967;51.154;13.812;2022-09-21T05:55:32;100424.50;;;11.09;85.24
39267;BME280;24967;51.154;13.812;2022-09-21T05:58:05;100427.16;;;11.09;85.44
39267;BME280;24967;51.154;13.812;2022-09-21T06:00:40;100429.25;;;11.36;84.39
39267;BME280;24967;51.154;13.812;2022-09-21T06:03:25;100437.72;;;11.20;85.23
39267;BME280;24967;51.154;13.812;2022-09-21T06:05:52;100439.16;;;11.03;86.41
39267;BME280;24967;51.154;13.812;2022-09-21T06:08:20;100435.97;;;11.40;84.71
39267;BME280;24967;51.154;13.812;2022-09-21T06:10:47;100435.75;;;10.91;86.81
39267;BME280;24967;51.154;13.812;2022-09-21T06:13:13;100436.56;;;10.92;86.99
39267;BME280;24967;51.154;13.812;2022-09-21T06:15:40;100436.31;;;10.95;87.80
39267;BME280;24967;51.154;13.812;2022-09-21T06:18:07;100435.00;;;11.10;87.07
39267;BME280;24967;51.154;13.812;2022-09-21T06:20:34;100438.00;;;11.17;87.19
39267;BME280;24967;51.154;13.812;2022-09-21T06:23:01;100437.28;;;11.15;87.57
39267;BME280;24967;51.154;13.812;2022-09-21T06:25:29;100442.72;;;11.13;86.82
39267;BME280;24967;51.154;13.812;2022-09-21T06:28:00;100437.22;;;11.05;87.76
39267;BME280;24967;51.154;13.812;2022-09-21T06:30:28;100436.53;;;10.82;88.87
39267;BME280;24967;51.154;13.812;2022-09-21T06:32:57;100437.34;;;10.83;88.57
39267;BME280;24967;51.154;13.812;2022-09-21T06:35:24;100442.56;;;11.05;88.29
39267;BME280;24967;51.154;13.812;2022-09-21T06:37:51;100442.94;;;11.00;88.02
39267;BME280;24967;51.154;13.812;2022-09-21T06:40:17;100449.44;;;11.08;87.87
39267;BME280;24967;51.154;13.812;2022-09-21T06:42:45;100442.56;;;11.05;88.61
39267;BME280;24967;51.154;13.812;2022-09-21T06:45:11;100444.91;;;11.29;87.60
39267;BME280;24967;51.154;13.812;2022-09-21T06:47:38;100447.91;;;11.15;87.70
39267;BME280;24967;51.154;13.812;2022-09-21T06:50:05;100444.69;;;10.90;89.52
39267;BME280;24967;51.154;13.812;2022-09-21T06:52:32;100444.91;;;10.98;89.70
39267;BME280;24967;51.154;13.812;2022-09-21T06:54:58;100448.59;;;10.86;89.62
39267;BME280;24967;51.154;13.812;2022-09-21T06:57:25;100450.84;;;11.12;89.68
39267;BME280;24967;51.154;13.812;2022-09-21T06:59:53;100450.53;;;11.05;88.73
39267;BME280;24967;51.154;13.812;2022-09-21T07:02:19;100452.72;;;11.00;89.76
39267;BME280;24967;51.154;13.812;2022-09-21T07:04:46;100449.25;;;10.78;91.63
39267;BME280;24967;51.154;13.812;2022-09-21T07:07:12;100453.94;;;10.86;91.74
39267;BME280;24967;51.154;13.812;2022-09-21T07:09:39;100453.50;;;11.12;90.94
39267;BME280;24967;51.154;13.812;2022-09-21T07:12:06;100457.31;;;11.19;90.41
39267;BME280;24967;51.154;13.812;2022-09-21T07:14:33;100461.53;;;11.52;89.26
39267;BME280;24967;51.154;13.812;2022-09-21T07:17:01;100455.97;;;11.34;89.10
39267;BME280;24967;51.154;13.812;2022-09-21T07:19:27;100459.41;;;11.15;88.74
39267;BME280;24967;51.154;13.812;2022-09-21T07:21:54;100463.13;;;11.34;89.81
39267;BME280;24967;51.154;13.812;2022-09-21T07:24:20;100469.38;;;11.44;89.85
39267;BME280;24967;51.154;13.812;2022-09-21T07:26:47;100466.59;;;11.55;89.29
39267;BME280;24967;51.154;13.812;2022-09-21T07:29:13;100477.19;;;11.76;88.33
39267;BME280;24967;51.154;13.812;2022-09-21T07:31:42;100475.34;;;11.77;86.18
39267;BME280;24967;51.154;13.812;2022-09-21T07:34:10;100476.00;;;11.90;85.90
39267;BME280;24967;51.154;13.812;2022-09-21T07:36:36;100476.28;;;11.87;86.12
39267;BME280;24967;51.154;13.812;2022-09-21T07:39:03;100481.28;;;11.80;86.03
39267;BME280;24967;51.154;13.812;2022-09-21T07:41:30;100486.94;;;11.87;86.85
39267;BME280;24967;51.154;13.812;2022-09-21T07:43:56;100487.28;;;11.82;86.58
39267;BME280;24967;51.154;13.812;2022-09-21T07:46:23;100484.16;;;11.67;85.65
39267;BME280;24967;51.154;13.812;2022-09-21T07:48:52;100492.47;;;11.74;84.85
39267;BME280;24967;51.154;13.812;2022-09-21T07:51:20;100482.72;;;11.94;84.31
39267;BME280;24967;51.154;13.812;2022-09-21T07:53:53;100486.09;;;11.86;84.88
39267;BME280;24967;51.154;13.812;2022-09-21T07:56:21;100489.09;;;11.72;86.50
39267;BME280;24967;51.154;13.812;2022-09-21T07:58:47;100491.41;;;11.86;86.42
39267;BME280;24967;51.154;13.812;2022-09-21T08:01:32;100485.94;;;11.57;88.75
39267;BME280;24967;51.154;13.812;2022-09-21T08:03:59;100486.56;;;11.40;90.14
39267;BME280;24967;51.154;13.812;2022-09-21T08:06:29;100486.59;;;11.80;88.30
39267;BME280;24967;51.154;13.812;2022-09-21T08:08:57;100486.25;;;11.64;88.84
39267;BME280;24967;51.154;13.812;2022-09-21T08:11:25;100487.78;;;11.97;87.75
39267;BME280;24967;51.154;13.812;2022-09-21T08:13:52;100484.47;;;12.14;87.52
39267;BME280;24967;51.154;13.812;2022-09-21T08:16:19;100478.84;;;12.18;88.05
39267;BME280;24967;51.154;13.812;2022-09-21T08:18:45;100477.28;;;12.05;86.70
39267;BME280;24967;51.154;13.812;2022-09-21T08:21:12;100477.13;;;12.07;87.64
39267;BME280;24967;51.154;13.812;2022-09-21T08:23:40;100482.91;;;12.22;86.99
39267;BME280;24967;51.154;13.812;2022-09-21T08:26:09;100483.38;;;12.27;87.00
39267;BME280;24967;51.154;13.812;2022-09-21T08:28:38;100491.78;;;12.32;84.58
39267;BME280;24967;51.154;13.812;2022-09-21T08:31:06;100485.19;;;12.17;85.24
39267;BME280;24967;51.154;13.812;2022-09-21T08:33:33;100483.78;;;12.42;85.32
39267;BME280;24967;51.154;13.812;2022-09-21T08:36:01;100489.28;;;12.59;86.30
39267;BME280;24967;51.154;13.812;2022-09-21T08:38:31;100489.00;;;12.72;85.25
39267;BME280;24967;51.154;13.812;2022-09-21T08:41:00;100486.72;;;12.68;83.40
39267;BME280;24967;51.154;13.812;2022-09-21T08:43:31;100485.91;;;12.67;82.84
39267;BME280;24967;51.154;13.812;2022-09-21T08:46:02;100493.75;;;12.78;82.07
39267;BME280;24967;51.154;13.812;2022-09-21T08:48:35;100493.63;;;12.70;83.03
39267;BME280;24967;51.154;13.812;2022-09-21T08:51:07;100494.34;;;12.53;84.33
39267;BME280;24967;51.154;13.812;2022-09-21T08:53:39;100492.94;;;12.78;81.87
39267;BME280;24967;51.154;13.812;2022-09-21T08:56:10;100490.34;;;13.05;81.46
39267;BME280;24967;51.154;13.812;2022-09-21T08:58:37;100487.56;;;12.97;83.67
39267;BME280;24967;51.154;13.812;2022-09-21T09:01:18;100491.59;;;13.21;82.27
39267;BME280;24967;51.154;13.812;2022-09-21T09:04:15;100492.22;;;13.52;80.24
39267;BME280;24967;51.154;13.812;2022-09-21T09:06:53;100494.94;;;13.42;79.75
39267;BME280;24967;51.154;13.812;2022-09-21T09:12:33;100492.88;;;13.64;83.06
39267;BME280;24967;51.154;13.812;2022-09-21T09:15:10;100490.66;;;13.87;79.71
39267;BME280;24967;51.154;13.812;2022-09-21T09:17:47;100484.59;;;14.12;79.28
39267;BME280;24967;51.154;13.812;2022-09-21T09:20:19;100485.50;;;14.03;76.58
39267;BME280;24967;51.154;13.812;2022-09-21T09:22:51;100484.91;;;14.09;76.64
39267;BME280;24967;51.154;13.812;2022-09-21T09:25:22;100475.56;;;13.95;76.65
39267;BME280;24967;51.154;13.812;2022-09-21T09:27:52;100479.59;;;14.45;76.89
39267;BME280;24967;51.154;13.812;2022-09-21T09:30:23;100475.19;;;14.54;75.63
39267;BME280;24967;51.154;13.812;2022-09-21T09:32:54;100477.69;;;14.73;76.20
39267;BME280;24967;51.154;13.812;2022-09-21T09:35:25;100474.13;;;15.08;74.45
39267;BME280;24967;51.154;13.812;2022-09-21T09:37:56;100477.22;;;14.96;71.92
39267;BME280;24967;51.154;13.812;2022-09-21T09:40:37;100475.84;;;15.18;72.76
39267;BME280;24967;51.154;13.812;2022-09-21T09:43:13;100471.53;;;14.99;73.08
39267;BME280;24967;51.154;13.812;2022-09-21T09:45:50;100484.72;;;14.92;73.20
39267;BME280;24967;51.154;13.812;2022-09-21T09:48:33;100472.28;;;15.09;71.52
39267;BME280;24967;51.154;13.812;2022-09-21T09:51:03;100477.25;;;15.30;71.15
39267;BME280;24967;51.154;13.812;2022-09-21T09:53:30;100474.84;;;15.45;72.91
39267;BME280;24967;51.154;13.812;2022-09-21T09:55:59;100468.03;;;15.24;72.11
39267;BME280;24967;51.154;13.812;2022-09-21T09:58:35;100481.22;;;15.52;72.07
39267;BME280;24967;51.154;13.812;2022-09-21T10:01:03;100474.84;;;15.45;70.20
39267;BME280;24967;51.154;13.812;2022-09-21T10:03:30;100475.66;;;15.45;71.83
39267;BME280;24967;51.154;13.812;2022-09-21T10:05:56;100471.44;;;15.34;70.57
39267;BME280;24967;51.154;13.812;2022-09-21T10:08:38;100467.63;;;15.37;70.31
39267;BME280;24967;51.154;13.812;2022-09-21T10:11:06;100467.00;;;15.51;70.28
39267;BME280;24967;51.154;13.812;2022-09-21T10:13:35;100468.41;;;15.98;70.06
39267;BME280;24967;51.154;13.812;2022-09-21T10:16:05;100465.28;;;16.27;69.82
39267;BME280;24967;51.154;13.812;2022-09-21T10:18:39;100460.53;;;16.05;70.55
39267;BME280;24967;51.154;13.812;2022-09-21T10:21:08;100464.56;;;16.09;69.12
39267;BME280;24967;51.154;13.812;2022-09-21T10:23:35;100473.44;;;16.01;68.23
39267;BME280;24967;51.154;13.812;2022-09-21T10:26:06;100467.03;;;15.94;66.96
39267;BME280;24967;51.154;13.812;2022-09-21T10:28:35;100467.97;;;15.68;68.38
39267;BME280;24967;51.154;13.812;2022-09-21T10:31:15;100463.53;;;15.93;69.61
39267;BME280;24967;51.154;13.812;2022-09-21T10:33:47;100459.69;;;15.96;70.04
39267;BME280;24967;51.154;13.812;2022-09-21T10:36:30;100458.97;;;15.86;67.92
39267;BME280;24967;51.154;13.812;2022-09-21T10:39:19;100467.50;;;15.55;68.54
39267;BME280;24967;51.154;13.812;2022-09-21T10:41:48;100466.66;;;15.80;68.24
39267;BME280;24967;51.154;13.812;2022-09-21T10:44:18;100463.63;;;15.75;71.39
39267;BME280;24967;51.154;13.812;2022-09-21T10:46:46;100458.69;;;16.05;70.73
39267;BME280;24967;51.154;13.812;2022-09-21T10:49:17;100457.00;;;15.96;66.62
39267;BME280;24967;51.154;13.812;2022-09-21T10:51:47;100457.59;;;15.73;66.99
39267;BME280;24967;51.154;13.812;2022-09-21T10:54:19;100462.34;;;15.96;68.19
39267;BME280;24967;51.154;13.812;2022-09-21T10:56:53;100459.03;;;16.02;66.62
39267;BME280;24967;51.154;13.812;2022-09-21T10:59:24;100455.38;;;16.19;69.42
39267;BME280;24967;51.154;13.812;2022-09-21T11:01:52;100460.59;;;16.29;69.98
39267;BME280;24967;51.154;13.812;2022-09-21T11:04:28;100453.59;;;16.53;65.58
39267;BME280;24967;51.154;13.812;2022-09-21T11:07:02;100452.91;;;16.51;65.15
39267;BME280;24967;51.154;13.812;2022-09-21T11:09:34;100455.19;;;16.21;64.79
39267;BME280;24967;51.154;13.812;2022-09-21T11:12:15;100449.50;;;16.16;65.93
39267;BME280;24967;51.154;13.812;2022-09-21T11:14:55;100450.78;;;16.03;65.75
39267;BME280;24967;51.154;13.812;2022-09-21T11:17:33;100445.53;;;15.77;65.33
39267;BME280;24967;51.154;13.812;2022-09-21T11:20:15;100444.41;;;15.96;66.53
39267;BME280;24967;51.154;13.812;2022-09-21T11:22:50;100445.50;;;15.69;66.65
39267;BME280;24967;51.154;13.812;2022-09-21T11:25:30;100438.16;;;15.71;66.06
39267;BME280;24967;51.154;13.812;2022-09-21T11:28:01;100429.19;;;16.05;65.01
39267;BME280;24967;51.154;13.812;2022-09-21T11:30:49;100434.38;;;16.07;67.04
39267;BME280;24967;51.154;13.812;2022-09-21T11:33:32;100439.75;;;16.07;67.21
39267;BME280;24967;51.154;13.812;2022-09-21T11:36:09;100435.94;;;16.34;64.13
39267;BME280;24967;51.154;13.812;2022-09-21T11:38:44;100434.28;;;16.57;62.40
39267;BME280;24967;51.154;13.812;2022-09-21T11:41:26;100434.78;;;16.61;63.34
39267;BME280;24967;51.154;13.812;2022-09-21T11:43:59;100434.63;;;16.70;62.33
39267;BME280;24967;51.154;13.812;2022-09-21T11:46:32;100434.28;;;16.74;61.97
39267;BME280;24967;51.154;13.812;2022-09-21T11:49:11;100421.53;;;16.67;61.28
39267;BME280;24967;51.154;13.812;2022-09-21T11:51:53;100428.75;;;16.51;62.69
39267;BME280;24967;51.154;13.812;2022-09-21T11:54:44;100421.84;;;16.48;64.36
39267;BME280;24967;51.154;13.812;2022-09-21T11:57:20;100416.84;;;16.53;65.48
39267;BME280;24967;51.154;13.812;2022-09-21T12:00:02;100414.16;;;16.78;65.60
39267;BME280;24967;51.154;13.812;2022-09-21T12:03:10;100416.84;;;16.86;63.61
39267;BME280;24967;51.154;13.812;2022-09-21T12:05:45;100417.16;;;16.99;61.50
39267;BME280;24967;51.154;13.812;2022-09-21T12:08:41;100409.56;;;17.11;61.88
39267;BME280;24967;51.154;13.812;2022-09-21T12:11:19;100413.28;;;17.10;63.23
39267;BME280;24967;51.154;13.812;2022-09-21T12:13:55;100412.13;;;17.04;62.96
39267;BME280;24967;51.154;13.812;2022-09-21T12:16:32;100408.47;;;16.81;62.80
39267;BME280;24967;51.154;13.812;2022-09-21T12:19:08;100403.91;;;16.57;61.37
39267;BME280;24967;51.154;13.812;2022-09-21T12:21:40;100405.09;;;16.70;63.13
39267;BME280;24967;51.154;13.812;2022-09-21T12:24:13;100405.25;;;16.93;62.15
39267;BME280;24967;51.154;13.812;2022-09-21T12:26:43;100399.03;;;16.68;60.79
39267;BME280;24967;51.154;13.812;2022-09-21T12:29:14;100402.09;;;16.49;62.49
39267;BME280;24967;51.154;13.812;2022-09-21T12:31:49;100395.34;;;16.69;62.90
39267;BME280;24967;51.154;13.812;2022-09-21T12:34:23;100394.53;;;16.77;62.11
39267;BME280;24967;51.154;13.812;2022-09-21T12:36:58;100403.25;;;16.87;63.75
39267;BME280;24967;51.154;13.812;2022-09-21T12:39:28;100405.91;;;16.96;60.85
39267;BME280;24967;51.154;13.812;2022-09-21T12:41:58;100398.22;;;16.92;60.37
39267;BME280;24967;51.154;13.812;2022-09-21T12:44:31;100397.69;;;16.97;59.73
39267;BME280;24967;51.154;13.812;2022-09-21T12:47:18;100385.75;;;17.00;60.55
39267;BME280;24967;51.154;13.812;2022-09-21T12:49:50;100394.50;;;17.02;60.38
39267;BME280;24967;51.154;13.812;2022-09-21T12:52:24;100390.72;;;17.27;61.91
39267;BME280;24967;51.154;13.812;2022-09-21T12:54:57;100394.41;;;17.26;60.99
39267;BME280;24967;51.154;13.812;2022-09-21T12:57:34;100386.91;;;17.05;60.70
39267;BME280;24967;51.154;13.812;2022-09-21T13:00:10;100388.00;;;16.80;61.34
39267;BME280;24967;51.154;13.812;2022-09-21T13:02:42;100394.00;;;16.74;62.75